Time,TemperatureF,DewpointF,PressureIn,WindDirection,WindDirectionDegrees,WindSpeedMPH,WindSpeedGustMPH,Humidity,HourlyPrecipIn,Conditions,Clouds,dailyrainin,SoftwareType,DateUTC
2013-06-26 00:02:00,81.0,72.0,29.76,SSE,162,0.0,9.0,73,0.00,,,0.00,,2013-06-26 05:02:00,
2013-06-26 00:11:00,81.0,72.0,29.76,South,171,0.0,6.0,75,0.00,,,0.00,,2013-06-26 05:11:00,
2013-06-26 00:22:00,80.0,72.0,29.76,South,171,0.0,0.0,76,0.00,,,0.00,,2013-06-26 05:22:00,
2013-06-26 00:34:00,80.0,72.0,29.76,South,171,0.0,0.0,76,0.00,,,0.00,,2013-06-26 05:34:00,
2013-06-26 00:43:00,79.0,72.0,29.76,South,171,0.0,0.0,78,0.00,,,0.00,,2013-06-26 05:43:00,
2013-06-26 00:52:00,79.0,72.0,29.76,South,171,0.0,0.0,79,0.00,,,0.00,,2013-06-26 05:52:00,
2013-06-26 01:02:00,79.0,72.0,29.76,South,171,0.0,0.0,79,0.00,,,0.00,,2013-06-26 06:02:00,
2013-06-26 01:11:00,78.0,71.0,29.76,South,171,0.0,2.0,80,0.00,,,0.00,,2013-06-26 06:11:00,
2013-06-26 01:22:00,78.0,71.0,29.76,South,173,0.0,2.0,80,0.00,,,0.00,,2013-06-26 06:22:00,
2013-06-26 01:34:00,78.0,71.0,29.76,South,173,0.0,2.0,80,0.00,,,0.00,,2013-06-26 06:34:00,
2013-06-26 01:43:00,78.0,72.0,29.76,South,171,5.0,7.0,81,0.00,,,0.00,,2013-06-26 06:43:00,
2013-06-26 01:53:00,77.0,71.0,29.76,SSE,155,3.0,6.0,81,0.00,,,0.00,,2013-06-26 06:53:00,
2013-06-26 02:01:00,77.0,71.0,29.76,SSE,155,3.0,6.0,81,0.00,,,0.00,,2013-06-26 07:01:00,
2013-06-26 02:11:00,77.0,71.0,29.76,South,176,0.0,4.0,82,0.00,,,0.00,,2013-06-26 07:11:00,
2013-06-26 02:22:00,77.0,71.0,29.76,SSE,159,0.0,3.0,82,0.00,,,0.00,,2013-06-26 07:22:00,
2013-06-26 02:33:00,77.0,71.0,29.76,SSE,159,0.0,3.0,82,0.00,,,0.00,,2013-06-26 07:33:00,
2013-06-26 02:43:00,77.0,71.0,29.76,SSE,158,0.0,0.0,83,0.00,,,0.00,,2013-06-26 07:43:00,
2013-06-26 02:53:00,76.0,70.0,29.76,SSE,158,0.0,0.0,83,0.00,,,0.00,,2013-06-26 07:53:00,
2013-06-26 03:01:00,76.0,70.0,29.76,SSE,158,0.0,0.0,83,0.00,,,0.00,,2013-06-26 08:01:00,
2013-06-26 03:11:00,76.0,71.0,29.76,SSE,157,1.0,3.0,84,0.00,,,0.00,,2013-06-26 08:11:00,
2013-06-26 03:22:00,75.0,70.0,29.76,SSE,157,0.0,1.0,85,0.00,,,0.00,,2013-06-26 08:22:00,
2013-06-26 03:33:00,75.0,70.0,29.76,SSE,157,0.0,1.0,85,0.00,,,0.00,,2013-06-26 08:33:00,
2013-06-26 03:42:00,75.0,70.0,29.76,SSE,157,0.0,1.0,85,0.00,,,0.00,,2013-06-26 08:42:00,
2013-06-26 03:52:00,75.0,71.0,29.76,SSE,158,0.0,1.0,86,0.00,,,0.00,,2013-06-26 08:52:00,
2013-06-26 04:01:00,75.0,71.0,29.76,SSE,158,0.0,1.0,86,0.00,,,0.00,,2013-06-26 09:01:00,
2013-06-26 04:11:00,74.0,70.0,29.76,SSE,159,0.0,0.0,86,0.00,,,0.00,,2013-06-26 09:11:00,
2013-06-26 04:22:00,74.0,70.0,29.75,SSE,158,0.0,1.0,87,0.00,,,0.00,,2013-06-26 09:22:00,
2013-06-26 04:32:00,74.0,70.0,29.75,SSE,158,0.0,1.0,87,0.00,,,0.00,,2013-06-26 09:32:00,
2013-06-26 04:43:00,74.0,70.0,29.76,SSE,158,0.0,1.0,87,0.00,,,0.00,,2013-06-26 09:43:00,
2013-06-26 04:53:00,74.0,70.0,29.76,SSE,157,0.0,1.0,88,0.00,,,0.00,,2013-06-26 09:53:00,
2013-06-26 05:01:00,74.0,70.0,29.76,SSE,157,0.0,1.0,88,0.00,,,0.00,,2013-06-26 10:01:00,
2013-06-26 05:12:00,74.0,70.0,29.76,SSE,157,0.0,1.0,88,0.00,,,0.00,,2013-06-26 10:12:00,
2013-06-26 05:22:00,74.0,70.0,29.76,SSE,158,0.0,1.0,88,0.00,,,0.00,,2013-06-26 10:22:00,
2013-06-26 05:34:00,74.0,70.0,29.76,SSE,158,0.0,1.0,88,0.00,,,0.00,,2013-06-26 10:34:00,
2013-06-26 05:43:00,73.0,69.0,29.76,SSE,158,0.0,1.0,88,0.00,,,0.00,,2013-06-26 10:43:00,
2013-06-26 05:53:00,73.0,69.0,29.77,SSE,158,0.0,0.0,88,0.00,,,0.00,,2013-06-26 10:53:00,
2013-06-26 06:02:00,73.0,69.0,29.77,SSE,158,0.0,0.0,88,0.00,,,0.00,,2013-06-26 11:02:00,
2013-06-26 06:11:00,73.0,69.0,29.77,SSE,157,0.0,0.0,88,0.00,,,0.00,,2013-06-26 11:11:00,
2013-06-26 06:22:00,72.0,69.0,29.78,SSE,157,0.0,0.0,89,0.00,,,0.00,,2013-06-26 11:22:00,
2013-06-26 06:33:00,72.0,69.0,29.78,SSE,157,0.0,0.0,89,0.00,,,0.00,,2013-06-26 11:33:00,
2013-06-26 06:44:00,72.0,69.0,29.78,SSE,158,0.0,0.0,90,0.00,,,0.00,,2013-06-26 11:44:00,
2013-06-26 06:52:00,71.0,68.0,29.80,SSE,157,0.0,0.0,90,0.00,,,0.00,,2013-06-26 11:52:00,
2013-06-26 07:02:00,71.0,68.0,29.80,SSE,157,0.0,0.0,90,0.00,,,0.00,,2013-06-26 12:02:00,
2013-06-26 07:12:00,71.0,68.0,29.80,SSE,158,0.0,0.0,91,0.00,,,0.00,,2013-06-26 12:12:00,
2013-06-26 07:22:00,71.0,68.0,29.81,SSE,157,0.0,0.0,91,0.00,,,0.00,,2013-06-26 12:22:00,
2013-06-26 07:33:00,71.0,68.0,29.81,SSE,157,0.0,0.0,91,0.00,,,0.00,,2013-06-26 12:33:00,
2013-06-26 07:42:00,72.0,70.0,29.81,SSE,157,0.0,0.0,92,0.00,,,0.00,,2013-06-26 12:42:00,
2013-06-26 07:52:00,72.0,70.0,29.82,SSE,157,0.0,0.0,92,0.00,,,0.00,,2013-06-26 12:52:00,
2013-06-26 08:02:00,72.0,70.0,29.82,SSE,157,0.0,0.0,92,0.00,,,0.00,,2013-06-26 13:02:00,
2013-06-26 08:11:00,73.0,71.0,29.83,SSE,157,0.0,0.0,92,0.00,,,0.00,,2013-06-26 13:11:00,
2013-06-26 08:22:00,75.0,72.0,29.83,SSE,157,0.0,0.0,91,0.00,,,0.00,,2013-06-26 13:22:00,
2013-06-26 08:34:00,75.0,72.0,29.83,SSE,157,0.0,0.0,91,0.00,,,0.00,,2013-06-26 13:34:00,
2013-06-26 08:42:00,78.0,72.0,29.84,North,351,2.0,4.0,83,0.00,,,0.00,,2013-06-26 13:42:00,
2013-06-26 08:53:00,79.0,72.0,29.85,North,350,1.0,3.0,80,0.00,,,0.00,,2013-06-26 13:53:00,
2013-06-26 09:02:00,79.0,72.0,29.85,North,350,1.0,3.0,80,0.00,,,0.00,,2013-06-26 14:02:00,
2013-06-26 09:23:00,82.0,73.0,29.85,NNE,25,0.0,4.0,75,0.00,,,0.00,,2013-06-26 14:23:00,
2013-06-26 09:34:00,82.0,73.0,29.85,NNE,25,0.0,4.0,75,0.00,,,0.00,,2013-06-26 14:34:00,
2013-06-26 09:42:00,83.0,73.0,29.86,NNE,30,0.0,4.0,73,0.00,,,0.00,,2013-06-26 14:42:00,
2013-06-26 09:52:00,84.0,73.0,29.86,NW,307,1.0,4.0,70,0.00,,,0.00,,2013-06-26 14:52:00,
2013-06-26 10:02:00,84.0,73.0,29.86,NW,307,1.0,4.0,70,0.00,,,0.00,,2013-06-26 15:02:00,
2013-06-26 10:11:00,85.0,72.0,29.86,NNW,347,0.0,3.0,65,0.00,,,0.00,,2013-06-26 15:11:00,
2013-06-26 10:34:00,86.0,73.0,29.85,North,360,0.0,4.0,65,0.00,,,0.00,,2013-06-26 15:34:00,
2013-06-26 10:44:00,87.0,72.0,29.85,NNW,348,0.0,2.0,62,0.00,,,0.00,,2013-06-26 15:44:00,
2013-06-26 10:53:00,88.0,73.0,29.85,NW,314,0.0,2.0,61,0.00,,,0.00,,2013-06-26 15:53:00,
2013-06-26 11:01:00,88.0,73.0,29.85,NW,314,0.0,2.0,61,0.00,,,0.00,,2013-06-26 16:01:00,
2013-06-26 11:11:00,89.0,71.0,29.85,NW,325,0.0,4.0,56,0.00,,,0.00,,2013-06-26 16:11:00,
2013-06-26 11:22:00,92.0,72.0,29.85,North,9,1.0,4.0,52,0.00,,,0.00,,2013-06-26 16:22:00,
2013-06-26 11:34:00,92.0,72.0,29.85,North,9,1.0,4.0,52,0.00,,,0.00,,2013-06-26 16:34:00,
2013-06-26 11:43:00,93.0,69.0,29.85,NW,324,2.0,5.0,46,0.00,,,0.00,,2013-06-26 16:43:00,
2013-06-26 11:52:00,94.0,69.0,29.85,ESE,103,0.0,6.0,45,0.00,,,0.00,,2013-06-26 16:52:00,
2013-06-26 12:01:00,94.0,69.0,29.85,ESE,103,0.0,6.0,45,0.00,,,0.00,,2013-06-26 17:01:00,
2013-06-26 12:11:00,95.0,71.0,29.85,NE,56,0.0,2.0,46,0.00,,,0.00,,2013-06-26 17:11:00,
2013-06-26 12:23:00,95.0,68.0,29.85,ESE,119,0.0,3.0,42,0.00,,,0.00,,2013-06-26 17:23:00,
2013-06-26 12:33:00,95.0,68.0,29.85,ESE,119,0.0,3.0,42,0.00,,,0.00,,2013-06-26 17:33:00,
2013-06-26 12:43:00,97.0,69.0,29.85,North,360,0.0,4.0,40,0.00,,,0.00,,2013-06-26 17:43:00,
2013-06-26 12:52:00,98.0,70.0,29.85,WNW,299,0.0,5.0,40,0.00,,,0.00,,2013-06-26 17:52:00,
2013-06-26 13:01:00,98.0,70.0,29.85,WNW,299,0.0,5.0,40,0.00,,,0.00,,2013-06-26 18:01:00,
2013-06-26 13:11:00,98.0,67.0,29.85,ENE,71,0.0,4.0,37,0.00,,,0.00,,2013-06-26 18:11:00,
2013-06-26 13:22:00,98.0,68.0,29.85,ENE,60,1.0,4.0,38,0.00,,,0.00,,2013-06-26 18:22:00,
2013-06-26 13:34:00,98.0,68.0,29.85,ENE,60,1.0,4.0,38,0.00,,,0.00,,2013-06-26 18:34:00,
2013-06-26 13:43:00,99.0,70.0,29.85,SE,126,0.0,7.0,39,0.00,,,0.00,,2013-06-26 18:43:00,
2013-06-26 13:52:00,99.0,70.0,29.84,SSE,150,0.0,2.0,39,0.00,,,0.00,,2013-06-26 18:52:00,
2013-06-26 14:01:00,99.0,70.0,29.84,SSE,150,0.0,2.0,39,0.00,,,0.00,,2013-06-26 19:01:00,
2013-06-26 14:22:00,100.0,69.0,29.84,East,92,0.0,2.0,37,0.00,,,0.00,,2013-06-26 19:22:00,
2013-06-26 14:33:00,100.0,69.0,29.84,East,92,0.0,2.0,37,0.00,,,0.00,,2013-06-26 19:33:00,
2013-06-26 16:52:00,101.0,65.0,29.83,East,89,1.0,9.0,31,0.00,,,0.00,,2013-06-26 21:52:00,
2013-06-26 17:01:00,101.0,65.0,29.83,East,89,1.0,9.0,31,0.00,,,0.00,,2013-06-26 22:01:00,
2013-06-26 23:11:00,81.0,69.0,29.87,SE,140,5.0,9.0,68,0.00,,,0.00,,2013-06-27 04:11:00,
2013-06-26 23:33:00,82.0,69.0,29.87,SE,141,3.0,6.0,65,0.00,,,0.00,,2013-06-27 04:33:00,
2013-06-26 23:42:00,82.0,69.0,29.87,SE,141,3.0,6.0,65,0.00,,,0.00,,2013-06-27 04:42:00,
2013-06-26 23:53:00,82.0,69.0,29.87,SE,141,3.0,6.0,65,0.00,,,0.00,,2013-06-27 04:53:00,